METAR AND TAF INFORMATION
METAR FOR EFMA
ADDS - METARS form results

(0129 UTC 01 June 2020)
Data provider http://aviationweather.gov/metar/data/
 
METAR text: EFMA 010120Z AUTO 36006KT CAVOK 09/06 Q1027
Conditions at: EFMA (MARIEHAMN/ALAND , FI) observed 0120 UTC 01 June 2020
Temperature: 9.0°C (48°F)
Dewpoint: 6.0°C (43°F) [RH = 81%]
Pressure (altimeter): 30.32 inches Hg (1027.0 mb)
Winds: from the N (360 degrees) at 7 MPH (6 knots; 3.1 m/s)
Visibility: 6 or more miles (10+ km)
Ceiling: ceiling and visibility are OK
Clouds: unknown
Weather: no significant weather observed at this time

METAR text: EFMA 010050Z AUTO 36006KT CAVOK 09/05 Q1027
Conditions at: EFMA (MARIEHAMN/ALAND , FI) observed 0050 UTC 01 June 2020
Temperature: 9.0°C (48°F)
Dewpoint: 5.0°C (41°F) [RH = 76%]
Pressure (altimeter): 30.32 inches Hg (1027.0 mb)
Winds: from the N (360 degrees) at 7 MPH (6 knots; 3.1 m/s)
Visibility: 6 or more miles (10+ km)
Ceiling: ceiling and visibility are OK
Clouds: unknown
Weather: no significant weather observed at this time

Forecast for: EFMA (MARIEHAMN/ALAND , FI)
Text: TAF EFMA 312329Z 0100/0109 36007KT CAVOK
Forecast period: 0000 to 0900 UTC 01 June 2020
Forecast type: FROM: standard forecast or significant change
Winds: from the N (360 degrees) at 8 MPH (7 knots; 3.6 m/s)
Visibility: 6 or more miles 10+ km)
Ceiling: unknown
Clouds: missing
Weather: NSW  (no significant weather)

 AIRPORT MAP

 RUNWAY INFORMATION
Runway 03 Runway length 6243 ft Runway width 197 ft
Runway elevation 4 ft Runway displaced threshold 0 ft Runway heading 23
Runway 21 Runway length 6243 ft Runway width 197 ft
Runway elevation 17 ft Runway displaced threshold 0 ft Runway heading 203

 AIRPORT FREQUENCIES
Type ATIS Name ATIS Frequency 114.7 MHZ
Type TWR Name TWR Frequency 119.6 MHZ

 AIRPORT NEAR NAVIGATION AIDS
Type VOR-DME Name Marie Frequency 114700 KHZ



Powered by Virtual Airlines Manager [v2.6.2]